Terminal Aerodrome Forecast
Issued by NWS

Home | Current Version | Previous Version | Text Only | Print | Product List | Glossary On
Versions: 1 2 3 4 5 6 7 8 9 10 11 12 13 14 15 16 17
000
FTUS46 KEKA 251204 AAA
TAFUKI
TAF AMD
KUKI 251204Z 2512/2612 16003KT P6SM OVC006
     FM251600 14003KT P6SM FEW015
     FM252100 16008KT P6SM SCT025
     FM260000 27008KT P6SM SCT030
     FM260400 18004KT P6SM SKC=

USA.gov is the U.S. government's official web portal to all federal, state and local government web resources and services.